Time;durP1;ratioP1;P1;durP2;ratioP2;P2;SDS_P1;SDS_P2;PMS_P1;PMS_P2;Temp;Humidity;BMP_temperature;BMP_pressure;BME280_temperature;BME280_humidity;BME280_pressure;Samples;Min_cycle;Max_cycle;Signal;HPM_P1;HPM_P2
2023/10/08 00:03:05;;;;;;;11.95;10.13;;;19.80;77.10;;;;;;10826574;32;20023;-75
2023/10/08 00:09:08;;;;;;;10.82;8.10;;;19.70;76.90;;;;;;10828686;33;20059;-75
2023/10/08 00:15:10;;;;;;;13.00;8.95;;;19.70;77.10;;;;;;10829402;33;20433;-75
2023/10/08 00:27:14;;;;;;;12.05;10.85;;;19.70;77.10;;;;;;10828475;33;20020;-75
2023/10/08 00:33:17;;;;;;;12.18;10.68;;;19.70;77.50;;;;;;10825599;33;20334;-75
2023/10/08 00:39:34;;;;;;;9.82;8.77;;;19.70;77.60;;;;;;10826996;33;20090;-75
2023/10/08 00:45:43;;;;;;;13.52;8.45;;;19.50;77.70;;;;;;10827877;33;20016;-75
2023/10/08 00:51:59;;;;;;;12.02;9.98;;;19.50;77.90;;;;;;10827813;33;20019;-75
2023/10/08 00:58:08;;;;;;;11.12;8.85;;;19.50;77.90;;;;;;10828717;33;20056;-75
2023/10/08 01:04:16;;;;;;;10.75;8.50;;;19.40;77.90;;;;;;10827441;33;20079;-75
2023/10/08 01:10:21;;;;;;;15.07;11.50;;;19.40;77.90;;;;;;10824484;32;20390;-75
2023/10/08 01:16:26;;;;;;;11.30;9.98;;;19.30;77.90;;;;;;10827001;33;20020;-75
2023/10/08 01:22:29;;;;;;;14.32;10.50;;;19.30;77.90;;;;;;10827095;33;20355;-75
2023/10/08 01:28:33;;;;;;;15.80;12.00;;;19.30;77.90;;;;;;10826707;33;20052;-75
2023/10/08 01:34:36;;;;;;;13.77;10.65;;;19.30;78.10;;;;;;10826376;33;20020;-75
2023/10/08 01:40:39;;;;;;;11.95;9.50;;;19.30;78.00;;;;;;10826212;33;20066;-75
2023/10/08 01:46:43;;;;;;;12.95;10.82;;;19.20;78.00;;;;;;10827981;33;20078;-75
2023/10/08 01:52:46;;;;;;;15.50;10.48;;;19.20;78.40;;;;;;10825965;33;20024;-75
2023/10/08 01:58:48;;;;;;;14.40;11.50;;;19.20;78.40;;;;;;10826381;33;20299;-75
2023/10/08 02:04:51;;;;;;;13.02;9.55;;;19.20;78.40;;;;;;10826220;33;20322;-75
2023/10/08 02:10:53;;;;;;;11.27;8.82;;;19.10;78.50;;;;;;10826632;33;20394;-75
2023/10/08 02:16:56;;;;;;;10.88;7.85;;;19.10;78.50;;;;;;10826496;33;20047;-76
2023/10/08 02:22:59;;;;;;;12.35;10.73;;;19.10;78.70;;;;;;10823651;32;20054;-75
2023/10/08 02:29:03;;;;;;;13.82;10.40;;;19.00;79.00;;;;;;10825158;33;20078;-74
2023/10/08 02:35:06;;;;;;;12.88;9.13;;;19.00;78.80;;;;;;10826084;33;20016;-76
2023/10/08 02:41:08;;;;;;;12.23;9.68;;;18.90;79.10;;;;;;10825759;33;20196;-75
2023/10/08 02:47:11;;;;;;;13.82;12.35;;;18.90;79.40;;;;;;10824933;32;20012;-75
2023/10/08 02:53:23;;;;;;;14.38;10.48;;;18.80;79.20;;;;;;10825052;33;20027;-76
2023/10/08 02:59:39;;;;;;;10.07;8.98;;;18.80;79.40;;;;;;10824886;33;20020;-75
2023/10/08 03:05:47;;;;;;;11.35;9.35;;;18.70;79.70;;;;;;10823986;33;20070;-76
2023/10/08 03:11:52;;;;;;;13.70;9.75;;;18.70;79.80;;;;;;10821762;33;20377;-75
2023/10/08 03:17:57;;;;;;;14.07;10.90;;;18.70;79.90;;;;;;10820969;33;20028;-75
2023/10/08 03:24:00;;;;;;;15.38;8.68;;;18.80;79.60;;;;;;10823409;33;20012;-75
2023/10/08 03:30:02;;;;;;;14.43;11.50;;;18.80;80.00;;;;;;10823578;33;20056;-75
2023/10/08 03:36:09;;;;;;;13.23;10.85;;;18.70;79.90;;;;;;10825430;32;20033;-75
2023/10/08 03:42:13;;;;;;;14.87;9.63;;;18.70;80.30;;;;;;10830980;33;20024;-75
2023/10/08 03:48:16;;;;;;;12.57;10.23;;;18.60;80.40;;;;;;10829007;33;20020;-75
2023/10/08 03:54:29;;;;;;;11.12;10.00;;;18.50;80.30;;;;;;10829403;33;20039;-75
2023/10/08 04:00:31;;;;;;;12.95;10.27;;;18.40;80.60;;;;;;10829318;33;20025;-75
2023/10/08 04:12:50;;;;;;;12.13;9.38;;;18.30;80.70;;;;;;10830009;33;20021;-75
2023/10/08 04:18:55;;;;;;;10.57;8.90;;;18.30;80.60;;;;;;10827645;33;20074;-75
2023/10/08 04:24:59;;;;;;;13.75;9.95;;;18.20;80.60;;;;;;10827446;33;20046;-76
2023/10/08 04:31:14;;;;;;;14.00;10.48;;;18.20;80.90;;;;;;10828938;33;20020;-75
2023/10/08 04:37:20;;;;;;;9.75;6.70;;;18.30;80.90;;;;;;10829217;33;20028;-75
2023/10/08 04:43:37;;;;;;;11.18;9.13;;;18.30;81.00;;;;;;10829166;33;20172;-76
2023/10/08 04:49:45;;;;;;;14.57;11.95;;;18.20;81.00;;;;;;10826426;32;20020;-75
2023/10/08 04:55:48;;;;;;;9.38;7.57;;;18.10;81.30;;;;;;10827396;33;20032;-75
2023/10/08 05:08:24;;;;;;;10.65;8.80;;;18.10;81.20;;;;;;10828421;33;20021;-75
2023/10/08 05:14:38;;;;;;;11.60;8.35;;;18.00;81.00;;;;;;10827946;33;20039;-75
2023/10/08 05:27:09;;;;;;;12.73;10.02;;;18.00;80.90;;;;;;10828037;33;20039;-75
2023/10/08 05:45:53;;;;;;;13.02;10.70;;;18.00;81.00;;;;;;10902295;32;20235;-75
2023/10/08 06:04:42;;;;;;;12.60;10.43;;;18.10;81.00;;;;;;10902278;32;20054;-75
2023/10/08 06:10:46;;;;;;;14.02;11.77;;;18.20;81.00;;;;;;10902154;32;20066;-75
2023/10/08 06:17:01;;;;;;;11.82;8.25;;;18.20;80.90;;;;;;10901948;32;20050;-75
2023/10/08 06:23:07;;;;;;;14.45;11.50;;;18.30;80.80;;;;;;10836533;32;20322;-76
2023/10/08 06:29:26;;;;;;;12.95;9.93;;;18.40;81.00;;;;;;10824669;33;20031;-76
2023/10/08 06:35:35;;;;;;;9.95;7.20;;;18.50;81.40;;;;;;10812644;32;20058;-75
2023/10/08 06:42:02;;;;;;;13.75;9.98;;;18.50;81.50;;;;;;10925515;32;20357;-76
2023/10/08 06:48:06;;;;;;;14.87;11.60;;;18.50;81.80;;;;;;10935142;27;20054;-75
2023/10/08 06:54:10;;;;;;;13.70;10.48;;;18.60;82.00;;;;;;10898977;32;20027;-72
2023/10/08 07:00:33;;;;;;;12.90;9.70;;;18.70;82.00;;;;;;10901030;32;20053;-71
2023/10/08 07:06:37;;;;;;;12.07;9.38;;;18.80;82.00;;;;;;10899845;32;20031;-71
2023/10/08 07:12:39;;;;;;;11.57;8.65;;;18.90;81.80;;;;;;10906581;32;20035;-72
2023/10/08 07:18:55;;;;;;;14.73;10.77;;;19.10;81.60;;;;;;10907963;32;20070;-72
2023/10/08 07:24:57;;;;;;;15.63;12.25;;;19.20;81.40;;;;;;10820934;32;20032;-71
2023/10/08 07:30:59;;;;;;;14.85;11.25;;;19.20;81.20;;;;;;10793190;33;20012;-70
2023/10/08 07:37:05;;;;;;;13.48;11.93;;;19.30;80.80;;;;;;10777022;32;20064;-71
2023/10/08 07:43:20;;;;;;;14.00;11.35;;;19.30;80.60;;;;;;10793956;33;20033;-70
2023/10/08 07:49:25;;;;;;;14.38;10.68;;;19.40;80.40;;;;;;10793338;33;20078;-71
2023/10/08 07:55:27;;;;;;;14.25;10.63;;;19.50;80.30;;;;;;10792496;33;20029;-72
2023/10/08 08:01:29;;;;;;;19.58;12.50;;;19.60;80.40;;;;;;10781002;33;20283;-72
2023/10/08 08:07:31;;;;;;;17.90;14.30;;;19.70;80.50;;;;;;10792843;33;20334;-70
2023/10/08 08:13:35;;;;;;;13.82;11.12;;;19.70;81.00;;;;;;10779649;32;20032;-70
2023/10/08 08:19:37;;;;;;;13.27;11.73;;;19.80;80.70;;;;;;10791461;33;20051;-71
2023/10/08 08:26:26;;;;;;;19.10;11.90;;;19.80;80.20;;;;;;10791297;33;20025;-71
2023/10/08 08:32:09;;;;;;;11.68;8.95;;;20.00;79.90;;;;;;10789439;33;20335;-71
2023/10/08 08:38:12;;;;;;;17.45;12.30;;;20.10;79.70;;;;;;10791538;33;20012;-71
2023/10/08 08:44:14;;;;;;;16.45;11.77;;;20.10;79.40;;;;;;10790401;33;20037;-71
2023/10/08 08:50:17;;;;;;;18.50;11.45;;;20.20;79.20;;;;;;10790689;33;20047;-72
2023/10/08 08:56:21;;;;;;;20.02;12.30;;;20.30;78.80;;;;;;10791177;33;20025;-71
2023/10/08 09:02:23;;;;;;;15.60;11.38;;;20.30;78.50;;;;;;10787241;33;20032;-70
2023/10/08 09:08:45;;;;;;;16.33;10.55;;;20.50;78.30;;;;;;10790646;33;20330;-71
2023/10/08 09:15:03;;;;;;;10.65;8.23;;;20.50;77.90;;;;;;10777201;33;20054;-70
2023/10/08 09:21:13;;;;;;;15.93;10.80;;;20.70;77.80;;;;;;10776287;33;20422;-70
2023/10/08 09:27:46;;;;;;;16.12;11.63;;;20.80;77.40;;;;;;10771815;33;20028;-71
2023/10/08 09:33:55;;;;;;;15.82;11.70;;;20.90;77.20;;;;;;10789008;33;20028;-70
2023/10/08 09:40:21;;;;;;;15.00;11.25;;;21.10;76.90;;;;;;10788760;33;20016;-71
2023/10/08 09:46:33;;;;;;;16.87;13.45;;;21.20;76.60;;;;;;10790549;33;20036;-72
2023/10/08 09:52:44;;;;;;;15.60;11.63;;;21.30;76.20;;;;;;10788393;33;20050;-70
2023/10/08 09:58:49;;;;;;;15.40;9.02;;;21.50;75.90;;;;;;10788223;33;20281;-72
2023/10/08 10:04:52;;;;;;;15.25;10.60;;;21.70;75.60;;;;;;10789368;33;20082;-70
2023/10/08 10:11:15;;;;;;;13.50;10.05;;;21.80;75.00;;;;;;10778668;33;20051;-72
2023/10/08 10:17:22;;;;;;;12.57;9.23;;;21.80;74.80;;;;;;10774880;33;20043;-72
2023/10/08 10:23:40;;;;;;;14.50;10.98;;;22.00;74.50;;;;;;10788473;33;20020;-72
2023/10/08 10:29:43;;;;;;;15.13;9.45;;;22.20;74.10;;;;;;10788202;33;20055;-70
2023/10/08 10:35:52;;;;;;;15.98;10.98;;;22.40;73.70;;;;;;10788396;33;20025;-70
2023/10/08 10:42:01;;;;;;;11.63;8.75;;;22.60;72.90;;;;;;10788933;33;20043;-71
2023/10/08 10:54:23;;;;;;;12.98;8.07;;;23.00;72.20;;;;;;10942187;32;20341;-70
2023/10/08 11:06:48;;;;;;;9.90;6.93;;;23.70;71.00;;;;;;10898882;32;20043;-74
2023/10/08 11:13:02;;;;;;;13.70;8.90;;;23.90;70.50;;;;;;10898322;32;20019;-75
2023/10/08 11:19:08;;;;;;;13.05;8.20;;;24.10;69.80;;;;;;10885196;32;20035;-74
2023/10/08 11:25:30;;;;;;;12.82;8.88;;;24.30;69.60;;;;;;10885575;32;20031;-75
2023/10/08 11:31:35;;;;;;;13.65;8.65;;;24.50;69.20;;;;;;10897529;32;20036;-76
2023/10/08 11:37:38;;;;;;;12.32;7.97;;;24.60;68.50;;;;;;10899038;32;20053;-75
2023/10/08 11:43:45;;;;;;;12.68;7.80;;;24.70;68.40;;;;;;10903358;32;20038;-73
2023/10/08 11:49:50;;;;;;;12.60;8.03;;;24.70;68.10;;;;;;10866359;32;20028;-70
2023/10/08 11:56:12;;;;;;;11.15;7.37;;;24.70;67.30;;;;;;10786346;33;20039;-70
2023/10/08 12:02:16;;;;;;;12.48;7.70;;;24.70;67.10;;;;;;10792622;33;20039;-70
2023/10/08 12:08:22;;;;;;;12.55;8.52;;;24.70;66.90;;;;;;10793815;33;20334;-70
2023/10/08 12:14:31;;;;;;;10.60;6.80;;;24.70;66.50;;;;;;10792389;33;20012;-70
2023/10/08 12:20:43;;;;;;;15.13;6.72;;;24.70;66.50;;;;;;10792404;33;20047;-70
2023/10/08 12:26:46;;;;;;;8.77;6.18;;;24.70;66.00;;;;;;10792130;33;20017;-70
2023/10/08 12:32:48;;;;;;;13.68;6.03;;;24.80;66.00;;;;;;10792105;33;20039;-71
2023/10/08 12:38:59;;;;;;;9.35;7.00;;;24.80;66.00;;;;;;10791592;33;20399;-71
2023/10/08 12:45:01;;;;;;;19.37;7.10;;;24.70;66.00;;;;;;10778121;32;20032;-74
2023/10/08 12:51:06;;;;;;;9.60;7.20;;;24.70;65.60;;;;;;10791795;33;20063;-74
2023/10/08 12:57:08;;;;;;;12.65;6.12;;;24.80;65.40;;;;;;10790713;33;20024;-74
2023/10/08 13:03:15;;;;;;;11.95;7.55;;;24.80;65.00;;;;;;10791393;33;20387;-75
2023/10/08 13:09:17;;;;;;;15.13;5.87;;;24.80;65.00;;;;;;10790332;33;20046;-74
2023/10/08 13:15:19;;;;;;;9.23;6.32;;;24.80;64.80;;;;;;10776538;33;20024;-74
2023/10/08 13:21:24;;;;;;;18.80;8.77;;;24.90;64.60;;;;;;10774825;33;20040;-74
2023/10/08 13:27:27;;;;;;;13.20;6.20;;;25.00;63.90;;;;;;10789005;33;20339;-74
2023/10/08 13:33:29;;;;;;;10.45;8.00;;;25.10;64.10;;;;;;10790463;33;20291;-74
2023/10/08 13:39:31;;;;;;;9.05;5.72;;;25.20;64.00;;;;;;10789764;33;20054;-70
2023/10/08 13:45:37;;;;;;;10.15;5.40;;;25.30;63.60;;;;;;10789633;33;20012;-71
2023/10/08 13:51:39;;;;;;;8.68;6.05;;;25.30;63.40;;;;;;10789729;33;20046;-72
2023/10/08 13:57:42;;;;;;;11.60;7.70;;;25.30;63.60;;;;;;10787982;33;20070;-71
2023/10/08 14:03:55;;;;;;;9.57;5.78;;;25.30;63.20;;;;;;10788965;33;20012;-71
2023/10/08 14:10:00;;;;;;;10.48;7.15;;;25.40;63.20;;;;;;10788651;33;20043;-71
2023/10/08 14:16:08;;;;;;;8.52;6.07;;;25.50;63.00;;;;;;10787862;33;20048;-71
2023/10/08 14:22:13;;;;;;;14.25;6.10;;;25.60;62.90;;;;;;10787959;33;20016;-71
2023/10/08 14:28:21;;;;;;;15.05;6.25;;;25.80;62.90;;;;;;10775029;33;20326;-71
2023/10/08 14:48:07;;;;;;;8.66;5.34;;;25.80;62.90;;;;;;10706217;27;7264007;-71
2023/10/08 14:54:09;;;;;;;7.20;4.45;;;25.90;62.70;;;;;;10742550;33;20070;-71
2023/10/08 15:00:11;;;;;;;12.52;5.25;;;25.70;63.10;;;;;;10742169;33;20115;-71
2023/10/08 15:06:14;;;;;;;7.95;3.80;;;25.50;63.40;;;;;;10742069;33;20199;-71
2023/10/08 15:12:17;;;;;;;8.90;5.62;;;25.30;63.80;;;;;;10736891;33;20109;-71
2023/10/08 15:18:19;;;;;;;8.27;4.93;;;25.20;64.10;;;;;;10730480;33;20048;-72
2023/10/08 15:24:22;;;;;;;10.35;4.80;;;25.20;64.30;;;;;;10757795;33;20047;-72
2023/10/08 15:30:25;;;;;;;8.60;4.25;;;25.20;64.40;;;;;;10789819;33;20020;-71
2023/10/08 15:36:28;;;;;;;10.85;4.32;;;25.00;64.60;;;;;;10793252;33;20008;-72
2023/10/08 15:42:30;;;;;;;7.25;4.62;;;25.00;64.80;;;;;;10792949;33;20024;-71
2023/10/08 15:48:33;;;;;;;6.72;4.40;;;24.90;65.10;;;;;;10792254;33;20028;-72
2023/10/08 15:54:35;;;;;;;6.72;4.10;;;24.90;65.30;;;;;;10792412;33;20012;-71
2023/10/08 16:00:37;;;;;;;10.20;4.60;;;25.20;65.00;;;;;;10792572;33;20017;-72
2023/10/08 16:06:40;;;;;;;8.57;5.18;;;25.30;64.70;;;;;;10792513;33;20042;-72
2023/10/08 16:12:42;;;;;;;8.18;5.07;;;25.00;65.20;;;;;;10790458;33;20020;-72
2023/10/08 16:18:49;;;;;;;;;;;24.90;65.70;;;;;;10793509;33;20028;-72
2023/10/08 16:24:52;;;;;;;11.48;4.47;;;24.70;66.10;;;;;;10790644;33;20285;-72
2023/10/08 16:30:58;;;;;;;10.05;4.30;;;24.50;66.50;;;;;;10791624;33;20052;-72
2023/10/08 16:37:21;;;;;;;13.27;5.70;;;24.40;66.80;;;;;;10791560;33;20047;-72
2023/10/08 16:43:23;;;;;;;7.12;4.47;;;24.30;66.90;;;;;;10790696;33;20078;-71
2023/10/08 16:49:28;;;;;;;7.75;4.72;;;24.30;67.10;;;;;;10791550;33;20330;-72
2023/10/08 16:55:31;;;;;;;8.05;4.65;;;24.20;67.20;;;;;;10790933;33;20012;-71
2023/10/08 17:01:35;;;;;;;8.57;5.32;;;24.10;67.40;;;;;;10791080;33;20381;-72
2023/10/08 17:07:38;;;;;;;9.32;5.60;;;24.00;67.60;;;;;;10789275;33;20036;-72
2023/10/08 17:13:41;;;;;;;10.55;5.60;;;23.90;67.80;;;;;;10789990;33;20338;-72
2023/10/08 17:19:44;;;;;;;11.27;6.82;;;23.80;67.90;;;;;;10789896;33;20024;-72
2023/10/08 17:25:51;;;;;;;12.40;8.63;;;23.80;68.10;;;;;;10787931;33;20055;-73
2023/10/08 17:31:54;;;;;;;18.47;12.83;;;23.70;68.30;;;;;;10791087;33;20020;-72
2023/10/08 17:37:57;;;;;;;18.45;13.85;;;23.60;68.40;;;;;;10789399;33;20035;-72
2023/10/08 17:44:00;;;;;;;23.33;13.98;;;23.50;68.60;;;;;;10789983;33;20024;-71
2023/10/08 17:50:03;;;;;;;17.77;12.50;;;23.40;68.90;;;;;;10789625;33;20013;-71
2023/10/08 17:56:06;;;;;;;20.00;14.18;;;23.30;69.00;;;;;;10788360;33;20043;-71
2023/10/08 18:02:09;;;;;;;21.67;14.10;;;23.30;69.10;;;;;;10789360;33;20016;-71
2023/10/08 18:08:12;;;;;;;18.90;13.85;;;23.20;69.30;;;;;;10788716;33;20051;-75
2023/10/08 18:14:16;;;;;;;18.60;13.10;;;23.10;69.60;;;;;;10786324;33;20028;-75
2023/10/08 18:20:23;;;;;;;16.35;11.82;;;22.90;69.70;;;;;;10786153;33;20059;-76
2023/10/08 18:26:26;;;;;;;17.53;13.67;;;22.80;69.90;;;;;;10786203;33;20078;-75
2023/10/08 18:32:30;;;;;;;19.15;13.68;;;22.70;70.00;;;;;;10783735;33;20449;-76
2023/10/08 18:39:12;;;;;;;15.70;12.60;;;22.70;70.10;;;;;;10793979;33;20028;-76
2023/10/08 18:45:16;;;;;;;16.37;13.10;;;22.60;70.30;;;;;;10783263;33;20300;-76
2023/10/08 18:52:05;;;;;;;17.17;13.38;;;22.60;70.50;;;;;;10783228;33;20020;-75
2023/10/08 18:58:55;;;;;;;16.98;12.43;;;22.40;70.70;;;;;;10821383;32;20448;-76
2023/10/08 19:04:57;;;;;;;19.42;13.90;;;22.30;70.80;;;;;;10824646;32;20019;-71
2023/10/08 19:10:59;;;;;;;20.33;14.40;;;22.30;70.90;;;;;;10833227;32;20024;-71
2023/10/08 19:17:02;;;;;;;19.75;14.05;;;22.30;71.00;;;;;;10832950;32;20460;-71
2023/10/08 19:23:05;;;;;;;20.08;14.65;;;22.30;71.10;;;;;;10828827;32;20079;-76
2023/10/08 19:29:08;;;;;;;16.70;12.77;;;22.10;71.20;;;;;;10855403;32;20035;-76
2023/10/08 19:35:10;;;;;;;18.62;12.75;;;22.10;71.50;;;;;;10801670;32;20040;-76
2023/10/08 19:41:14;;;;;;;18.90;14.90;;;22.10;71.60;;;;;;10786763;33;20054;-76
2023/10/08 19:47:16;;;;;;;19.27;15.20;;;22.00;71.90;;;;;;10792630;32;20036;-76
2023/10/08 19:53:19;;;;;;;18.95;14.15;;;21.90;72.20;;;;;;10792557;33;20420;-75
2023/10/08 19:59:40;;;;;;;18.20;13.32;;;21.90;72.20;;;;;;10792474;33;20055;-76
2023/10/08 20:05:43;;;;;;;17.58;13.60;;;21.80;72.50;;;;;;10787942;33;20578;-75
2023/10/08 20:11:46;;;;;;;19.15;13.27;;;21.80;72.70;;;;;;10788996;33;20226;-75
2023/10/08 20:17:49;;;;;;;19.80;15.35;;;21.70;72.90;;;;;;10786798;33;20334;-75
2023/10/08 20:23:52;;;;;;;18.33;14.35;;;21.70;72.80;;;;;;10787471;33;20028;-75
2023/10/08 20:29:54;;;;;;;20.62;14.98;;;21.70;72.80;;;;;;10787403;32;20086;-75
2023/10/08 20:35:56;;;;;;;25.00;15.13;;;21.70;72.90;;;;;;10787635;33;20024;-75
2023/10/08 20:41:59;;;;;;;16.25;13.10;;;21.60;72.90;;;;;;10756241;33;20365;-75
2023/10/08 20:48:01;;;;;;;24.67;16.33;;;21.50;73.20;;;;;;10757080;32;20055;-75
2023/10/08 20:54:04;;;;;;;22.55;16.40;;;21.40;73.70;;;;;;10756043;33;20391;-71
2023/10/08 21:00:07;;;;;;;20.35;18.12;;;21.30;73.60;;;;;;10778046;33;20017;-72
2023/10/08 21:06:10;;;;;;;20.65;15.50;;;21.30;73.80;;;;;;10789425;33;20024;-71
2023/10/08 21:12:13;;;;;;;24.98;18.70;;;21.20;74.10;;;;;;10790695;33;20020;-71
2023/10/08 21:18:19;;;;;;;21.83;15.43;;;21.30;74.10;;;;;;10786807;33;20406;-75
2023/10/08 21:24:21;;;;;;;21.25;16.33;;;21.30;74.10;;;;;;10777133;33;20051;-75
2023/10/08 21:30:27;;;;;;;24.15;17.45;;;21.20;74.40;;;;;;10789367;33;20017;-75
2023/10/08 21:36:29;;;;;;;18.65;14.15;;;21.30;74.30;;;;;;10771525;33;20418;-75
2023/10/08 21:42:31;;;;;;;20.17;14.68;;;21.30;74.20;;;;;;10751861;33;20032;-75
2023/10/08 21:48:35;;;;;;;21.00;17.25;;;21.30;74.20;;;;;;10753159;33;20025;-75
2023/10/08 21:54:38;;;;;;;22.33;15.80;;;21.30;74.20;;;;;;10753215;33;20017;-75
2023/10/08 22:00:47;;;;;;;23.30;16.33;;;21.20;74.30;;;;;;10751942;33;20028;-75
2023/10/08 22:06:49;;;;;;;19.85;15.20;;;21.20;74.20;;;;;;10753125;33;20387;-75
2023/10/08 22:12:53;;;;;;;23.77;18.08;;;21.00;74.20;;;;;;10753396;33;20403;-76
2023/10/08 22:18:57;;;;;;;21.20;18.17;;;21.00;74.80;;;;;;10748155;33;20020;-75
2023/10/08 22:24:59;;;;;;;21.62;15.65;;;21.00;74.90;;;;;;10752627;33;20386;-75
2023/10/08 22:31:09;;;;;;;18.95;16.52;;;20.90;74.70;;;;;;10751962;33;20016;-76
2023/10/08 22:37:19;;;;;;;22.42;17.15;;;20.90;74.80;;;;;;10751790;33;20025;-75
2023/10/08 22:43:22;;;;;;;22.73;16.62;;;20.90;75.20;;;;;;10752185;33;20021;-76
2023/10/08 22:49:25;;;;;;;26.80;18.83;;;20.80;75.40;;;;;;10848617;27;20065;-71
2023/10/08 22:55:27;;;;;;;20.58;16.62;;;20.90;75.60;;;;;;10980629;32;20018;-71
2023/10/08 23:01:29;;;;;;;27.90;19.37;;;20.80;75.50;;;;;;10980455;32;20393;-71
2023/10/08 23:07:31;;;;;;;26.30;18.70;;;20.80;75.60;;;;;;10980542;32;20015;-71
2023/10/08 23:13:35;;;;;;;22.65;16.95;;;20.80;75.60;;;;;;10979869;32;20389;-71
2023/10/08 23:19:38;;;;;;;23.58;16.23;;;20.80;75.60;;;;;;10966933;32;20320;-71
2023/10/08 23:25:40;;;;;;;22.00;17.02;;;20.80;75.70;;;;;;10979669;32;20376;-71
2023/10/08 23:31:42;;;;;;;19.70;16.92;;;20.70;76.30;;;;;;10978924;32;20027;-71
2023/10/08 23:37:53;;;;;;;24.75;18.65;;;20.70;76.30;;;;;;10978973;32;20027;-71
2023/10/08 23:43:55;;;;;;;20.02;16.02;;;20.60;76.40;;;;;;10965823;32;20058;-71
2023/10/08 23:50:16;;;;;;;20.20;16.05;;;20.60;76.30;;;;;;10872851;32;20444;-71
2023/10/08 23:56:26;;;;;;;23.77;19.00;;;20.50;76.60;;;;;;10817829;33;20390;-72
